createdAt,value
2023-02-06T00:00:23.288Z,1.80
2023-02-06T00:01:26.833Z,1.87
2023-02-06T00:02:29.118Z,2.02
2023-02-06T00:03:31.380Z,2.15
2023-02-06T00:04:33.626Z,2.25
2023-02-06T00:05:36.443Z,2.17
2023-02-06T00:06:39.104Z,2.04
2023-02-06T00:07:41.296Z,1.88
2023-02-06T00:08:43.840Z,1.94
2023-02-06T00:09:46.084Z,1.87
2023-02-06T00:10:48.365Z,1.84
2023-02-06T00:11:50.536Z,1.80
2023-02-06T00:12:52.826Z,1.70
2023-02-06T00:13:55.090Z,1.67
2023-02-06T00:14:57.257Z,1.56
2023-02-06T00:16:00.068Z,1.57
2023-02-06T00:17:02.389Z,1.58
2023-02-06T00:18:04.786Z,1.62
2023-02-06T00:19:07.241Z,1.60
2023-02-06T00:20:10.646Z,1.59
2023-02-06T00:21:13.698Z,1.56
2023-02-06T00:22:15.985Z,1.51
2023-02-06T00:23:18.353Z,1.45
2023-02-06T00:24:20.626Z,1.41
2023-02-06T00:25:22.806Z,1.40
2023-02-06T00:26:25.817Z,1.40
2023-02-06T00:27:28.000Z,1.41
2023-02-06T00:28:30.184Z,1.43
2023-02-06T00:29:32.836Z,1.45
2023-02-06T00:30:35.059Z,1.43
2023-02-06T00:31:37.337Z,1.50
2023-02-06T00:32:41.876Z,1.51
2023-02-06T00:33:44.132Z,1.48
2023-02-06T00:34:46.358Z,1.58
2023-02-06T00:35:48.593Z,1.62
2023-02-06T00:36:51.931Z,1.69
2023-02-06T00:37:54.165Z,1.59
2023-02-06T00:38:56.531Z,1.62
2023-02-06T00:39:59.197Z,1.69
2023-02-06T00:41:03.630Z,1.57
2023-02-06T00:42:06.329Z,1.62
2023-02-06T00:43:08.620Z,1.74
2023-02-06T00:44:10.948Z,1.66
2023-02-06T00:45:13.323Z,1.67
2023-02-06T00:46:16.674Z,1.68
2023-02-06T00:47:19.064Z,1.71
2023-02-06T00:48:21.504Z,1.65
2023-02-06T00:49:23.675Z,1.69
2023-02-06T00:50:26.491Z,1.82
2023-02-06T00:51:29.073Z,1.81
2023-02-06T00:52:31.450Z,1.84
2023-02-06T00:53:33.857Z,1.76
2023-02-06T00:54:36.081Z,1.72
2023-02-06T00:55:38.500Z,1.63
2023-02-06T00:56:40.642Z,1.61
2023-02-06T00:57:43.127Z,1.64
2023-02-06T00:58:45.323Z,1.78
2023-02-06T00:59:47.680Z,1.96
2023-02-06T01:00:49.860Z,2.10
2023-02-06T01:01:52.615Z,2.18
2023-02-06T01:02:54.849Z,2.23
2023-02-06T01:03:57.273Z,2.25
2023-02-06T01:04:59.871Z,2.27
2023-02-06T01:06:02.039Z,2.21
2023-02-06T01:07:04.202Z,2.30
2023-02-06T01:08:06.866Z,2.38
2023-02-06T01:09:09.339Z,2.47
2023-02-06T01:10:12.334Z,2.57
2023-02-06T01:11:18.070Z,2.51
2023-02-06T01:12:20.322Z,2.56
2023-02-06T01:13:23.187Z,2.49
2023-02-06T01:14:25.394Z,2.14
2023-02-06T01:15:27.590Z,2.08
2023-02-06T01:16:29.963Z,2.00
2023-02-06T01:17:33.596Z,1.90
2023-02-06T01:18:35.922Z,2.03
2023-02-06T01:19:38.812Z,2.02
2023-02-06T01:20:41.163Z,1.92
2023-02-06T01:21:43.456Z,1.83
2023-02-06T01:22:45.709Z,1.82
2023-02-06T01:23:50.128Z,1.90
2023-02-06T01:24:52.689Z,1.82
2023-02-06T01:25:54.890Z,1.80
2023-02-06T01:26:57.242Z,1.95
2023-02-06T01:27:59.788Z,2.09
2023-02-06T01:29:02.449Z,2.19
2023-02-06T01:30:06.728Z,2.27
2023-02-06T01:31:11.900Z,2.28
2023-02-06T01:32:14.142Z,2.34
2023-02-06T01:33:16.420Z,2.33
2023-02-06T01:34:19.321Z,2.08
2023-02-06T01:35:21.546Z,1.98
2023-02-06T01:36:24.782Z,1.87
2023-02-06T01:37:28.833Z,1.88
2023-02-06T01:38:31.175Z,1.76
2023-02-06T01:39:33.534Z,1.78
2023-02-06T01:40:36.206Z,1.87
2023-02-06T01:41:38.870Z,1.88
2023-02-06T01:42:41.283Z,1.77
2023-02-06T01:43:46.896Z,1.64
2023-02-06T01:44:49.092Z,1.69
2023-02-06T01:45:52.949Z,1.63
2023-02-06T01:46:57.076Z,1.64
2023-02-06T01:48:03.718Z,1.63
2023-02-06T01:49:20.077Z,1.70
2023-02-06T01:50:22.800Z,1.66
2023-02-06T01:51:26.733Z,1.76
2023-02-06T01:52:30.850Z,1.69
2023-02-06T01:53:34.669Z,1.91
2023-02-06T01:54:37.052Z,1.94
2023-02-06T01:55:42.642Z,1.89
2023-02-06T01:56:49.931Z,1.98
2023-02-06T01:57:52.332Z,1.89
2023-02-06T01:59:00.099Z,1.91
2023-02-06T02:02:08.817Z,1.69
2023-02-06T02:03:11.820Z,1.66
2023-02-06T02:04:18.072Z,1.56
2023-02-06T02:05:20.676Z,1.50
2023-02-06T02:06:26.434Z,1.50
2023-02-06T02:07:41.308Z,1.52
2023-02-06T02:08:46.399Z,1.38
2023-02-06T02:09:48.753Z,1.49
2023-02-06T02:10:52.216Z,1.47
2023-02-06T02:11:54.349Z,1.37
2023-02-06T02:12:56.805Z,1.34
2023-02-06T02:14:00.524Z,1.34
2023-02-06T02:15:02.822Z,1.40
2023-02-06T02:16:14.529Z,1.47
2023-02-06T02:17:30.029Z,1.51
2023-02-06T02:18:46.132Z,1.49
2023-02-06T02:20:06.458Z,1.50
2023-02-06T02:21:38.072Z,1.44
2023-02-06T02:23:06.504Z,1.49
2023-02-06T02:24:12.522Z,1.49
2023-02-06T02:25:55.315Z,1.49
2023-02-06T02:27:38.138Z,1.44
2023-02-06T02:29:28.499Z,1.44
2023-02-06T02:31:02.689Z,1.52
2023-02-06T02:32:43.049Z,1.64
2023-02-06T02:34:08.787Z,1.44
2023-02-06T02:35:28.986Z,1.66
2023-02-06T02:36:43.530Z,1.59
2023-02-06T02:38:10.656Z,1.67
2023-02-06T02:39:44.234Z,1.75
2023-02-06T02:40:51.346Z,1.87
2023-02-06T02:42:05.336Z,1.62
2023-02-06T02:43:25.961Z,1.50
2023-02-06T02:44:51.335Z,1.46
2023-02-06T02:46:19.302Z,1.42
2023-02-06T02:47:29.734Z,1.38
2023-02-06T02:48:40.965Z,1.35
2023-02-06T02:49:45.865Z,1.28
2023-02-06T02:50:48.968Z,1.25
2023-02-06T02:51:52.052Z,1.21
2023-02-06T02:52:54.459Z,1.31
2023-02-06T02:53:57.872Z,1.30
2023-02-06T02:55:00.424Z,1.29
2023-02-06T02:56:03.238Z,1.20
2023-02-06T02:57:22.566Z,1.16
2023-02-06T02:58:33.616Z,1.14
2023-02-06T02:59:39.841Z,1.10
2023-02-06T03:00:54.555Z,1.23
2023-02-06T03:02:02.060Z,1.23
2023-02-06T03:03:08.248Z,1.33
2023-02-06T03:04:16.268Z,1.40
2023-02-06T03:05:23.103Z,1.33
2023-02-06T03:06:42.381Z,1.33
2023-02-06T03:08:15.438Z,1.39
2023-02-06T03:09:44.303Z,1.34
2023-02-06T03:10:57.154Z,1.48
2023-02-06T03:12:10.211Z,1.66
2023-02-06T03:13:57.291Z,1.89
2023-02-06T03:15:05.587Z,1.83
2023-02-06T03:16:15.224Z,1.82
2023-02-06T03:17:28.252Z,1.99
2023-02-06T03:18:48.837Z,2.03
2023-02-06T03:19:55.219Z,1.80
2023-02-06T03:21:00.283Z,1.73
2023-02-06T03:22:04.947Z,1.71
2023-02-06T03:23:11.897Z,1.78
2023-02-06T03:24:19.124Z,1.79
2023-02-06T03:25:28.855Z,2.03
2023-02-06T03:26:32.717Z,2.09
2023-02-06T03:27:39.274Z,2.15
2023-02-06T03:28:49.808Z,2.23
2023-02-06T03:29:53.311Z,2.11
2023-02-06T03:30:58.202Z,2.03
2023-02-06T03:32:26.108Z,1.87
2023-02-06T03:33:35.094Z,1.85
2023-02-06T03:34:46.019Z,1.87
2023-02-06T03:35:49.497Z,1.93
2023-02-06T03:36:52.859Z,1.86
2023-02-06T03:37:55.132Z,1.82
2023-02-06T03:38:57.468Z,1.79
2023-02-06T03:40:01.240Z,1.82
2023-02-06T03:41:06.137Z,1.94
2023-02-06T03:42:11.677Z,2.08
2023-02-06T03:43:18.620Z,2.11
2023-02-06T03:44:24.653Z,1.88
2023-02-06T03:45:42.224Z,1.98
2023-02-06T03:46:46.328Z,1.92
2023-02-06T03:47:50.386Z,2.03
2023-02-06T03:48:55.984Z,2.13
2023-02-06T03:50:00.550Z,2.10
2023-02-06T03:51:09.615Z,2.18
2023-02-06T03:52:20.840Z,2.20
2023-02-06T03:53:25.525Z,2.23
2023-02-06T03:54:29.303Z,2.28
2023-02-06T03:55:31.686Z,2.24
2023-02-06T03:56:43.253Z,2.22
2023-02-06T03:57:50.008Z,2.06
2023-02-06T03:58:52.244Z,2.05
2023-02-06T03:59:54.756Z,2.23
2023-02-06T04:00:57.167Z,2.29
2023-02-06T04:02:03.367Z,2.34
2023-02-06T04:03:06.270Z,2.29
2023-02-06T04:04:08.449Z,1.92
2023-02-06T04:05:10.718Z,2.02
2023-02-06T04:06:12.970Z,2.03
2023-02-06T04:07:26.688Z,2.06
2023-02-06T04:08:28.852Z,2.00
2023-02-06T04:09:31.015Z,1.86
2023-02-06T04:10:33.581Z,1.68
2023-02-06T04:11:35.807Z,1.71
2023-02-06T04:12:38.400Z,1.73
2023-02-06T04:13:40.592Z,1.61
2023-02-06T04:14:43.191Z,1.56
2023-02-06T04:15:45.393Z,1.48
2023-02-06T04:16:48.066Z,1.44
2023-02-06T04:17:59.915Z,1.41
2023-02-06T04:19:03.005Z,1.29
2023-02-06T04:20:06.258Z,1.39
2023-02-06T04:21:08.804Z,1.49
2023-02-06T04:22:14.049Z,1.73
2023-02-06T04:23:16.444Z,1.77
2023-02-06T04:24:18.602Z,1.68
2023-02-06T04:25:20.837Z,1.85
2023-02-06T04:26:23.049Z,1.80
2023-02-06T04:27:25.378Z,1.87
2023-02-06T04:28:27.704Z,1.86
2023-02-06T04:29:31.061Z,1.88
2023-02-06T04:30:33.286Z,1.84
2023-02-06T04:31:35.622Z,1.80
2023-02-06T04:32:37.834Z,1.99
2023-02-06T04:33:40.110Z,1.91
2023-02-06T04:34:42.272Z,1.71
2023-02-06T04:35:44.504Z,1.88
2023-02-06T04:36:46.705Z,1.69
2023-02-06T04:37:48.867Z,1.46
2023-02-06T04:38:51.207Z,1.41
2023-02-06T04:39:53.402Z,1.24
2023-02-06T04:40:55.590Z,1.25
2023-02-06T04:41:57.789Z,1.34
2023-02-06T04:43:00.096Z,1.38
2023-02-06T04:44:02.420Z,1.41
2023-02-06T04:45:04.896Z,1.43
2023-02-06T04:46:07.169Z,1.53
2023-02-06T04:47:09.384Z,1.40
2023-02-06T04:48:11.568Z,1.36
2023-02-06T04:49:14.882Z,1.48
2023-02-06T04:50:18.108Z,1.52
2023-02-06T04:51:20.340Z,1.56
2023-02-06T04:52:22.584Z,1.67
2023-02-06T04:53:24.760Z,1.70
2023-02-06T04:54:26.964Z,1.64
2023-02-06T04:55:29.210Z,1.70
2023-02-06T04:56:31.512Z,1.80
2023-02-06T04:57:33.805Z,1.95
2023-02-06T04:58:39.370Z,1.96
2023-02-06T04:59:41.601Z,1.62
2023-02-06T05:00:43.892Z,1.61
2023-02-06T05:01:46.178Z,1.74
2023-02-06T05:02:48.422Z,1.90
2023-02-06T05:03:50.771Z,1.78
2023-02-06T05:04:53.095Z,1.69
2023-02-06T05:05:59.366Z,1.80
2023-02-06T05:07:02.348Z,1.89
2023-02-06T05:08:05.306Z,1.60
2023-02-06T05:09:07.576Z,1.54
2023-02-06T05:10:09.938Z,1.39
2023-02-06T05:11:12.619Z,1.28
2023-02-06T05:12:14.806Z,1.14
2023-02-06T05:13:16.958Z,1.24
2023-02-06T05:14:19.201Z,1.22
2023-02-06T05:15:22.040Z,1.16
2023-02-06T05:16:24.418Z,1.26
2023-02-06T05:17:26.847Z,1.35
2023-02-06T05:18:29.024Z,1.26
2023-02-06T05:19:31.228Z,1.24
2023-02-06T05:20:33.464Z,1.25
2023-02-06T05:21:35.649Z,1.16
2023-02-06T05:22:37.878Z,1.20
2023-02-06T05:23:40.705Z,1.20
2023-02-06T05:24:42.919Z,1.43
2023-02-06T05:25:45.163Z,1.38
2023-02-06T05:26:47.350Z,1.22
2023-02-06T05:27:51.367Z,1.36
2023-02-06T05:28:53.655Z,1.23
2023-02-06T05:29:55.932Z,1.08
2023-02-06T05:30:58.266Z,1.14
2023-02-06T05:32:00.527Z,1.16
2023-02-06T05:33:03.037Z,1.19
2023-02-06T05:34:05.302Z,1.18
2023-02-06T05:35:07.861Z,1.12
2023-02-06T05:36:10.069Z,1.12
2023-02-06T05:37:12.367Z,1.14
2023-02-06T05:38:14.624Z,1.07
2023-02-06T05:39:16.902Z,1.19
2023-02-06T05:40:19.269Z,1.16
2023-02-06T05:41:21.498Z,1.15
2023-02-06T05:42:23.868Z,1.19
2023-02-06T05:43:26.134Z,1.17
2023-02-06T05:44:28.397Z,1.14
2023-02-06T05:45:30.592Z,1.21
2023-02-06T05:46:32.831Z,1.09
2023-02-06T05:47:35.051Z,1.08
2023-02-06T05:48:37.334Z,1.05
2023-02-06T05:49:39.654Z,1.01
2023-02-06T05:50:43.298Z,1.03
2023-02-06T05:51:50.242Z,0.99
2023-02-06T05:52:52.479Z,0.96
2023-02-06T05:53:54.888Z,0.91
2023-02-06T05:54:57.153Z,0.89
2023-02-06T05:55:59.409Z,0.89
2023-02-06T05:57:02.049Z,1.00
2023-02-06T05:58:06.283Z,1.03
2023-02-06T05:59:08.627Z,1.06
2023-02-06T06:00:11.922Z,1.02
2023-02-06T06:01:14.310Z,1.12
2023-02-06T06:02:16.529Z,1.09
2023-02-06T06:03:19.117Z,1.05
2023-02-06T06:04:21.531Z,1.03
2023-02-06T06:05:23.820Z,0.97
2023-02-06T06:06:26.146Z,0.98
2023-02-06T06:07:28.372Z,1.04
2023-02-06T06:08:30.610Z,0.94
2023-02-06T06:09:32.812Z,0.93
2023-02-06T06:10:35.290Z,0.88
2023-02-06T06:11:37.503Z,0.87
2023-02-06T06:12:39.741Z,0.87
2023-02-06T06:13:41.982Z,0.93
2023-02-06T06:14:44.208Z,0.98
2023-02-06T06:15:50.337Z,1.00
2023-02-06T06:16:52.807Z,0.97
2023-02-06T06:17:55.127Z,0.97
2023-02-06T06:18:57.490Z,1.03
2023-02-06T06:19:59.761Z,1.06
2023-02-06T06:21:01.988Z,1.07
2023-02-06T06:22:04.292Z,1.03
2023-02-06T06:23:06.567Z,1.00
2023-02-06T06:24:08.800Z,0.99
2023-02-06T06:25:11.078Z,0.97
2023-02-06T06:26:13.341Z,0.91
2023-02-06T06:27:15.869Z,0.98
2023-02-06T06:28:18.091Z,0.98
2023-02-06T06:29:20.325Z,1.04
2023-02-06T06:30:22.560Z,1.02
2023-02-06T06:31:25.018Z,1.02
2023-02-06T06:32:27.256Z,1.10
2023-02-06T06:33:29.569Z,1.11
2023-02-06T06:34:31.901Z,1.06
2023-02-06T06:35:34.752Z,1.11
2023-02-06T06:36:37.289Z,1.06
2023-02-06T06:37:39.447Z,1.02
2023-02-06T06:38:41.674Z,1.05
2023-02-06T06:39:43.964Z,1.00
2023-02-06T06:40:46.174Z,1.00
2023-02-06T06:41:48.415Z,1.08
2023-02-06T06:42:50.696Z,1.11
2023-02-06T06:43:58.468Z,1.03
2023-02-06T06:45:00.678Z,1.01
2023-02-06T06:46:04.802Z,1.11
2023-02-06T06:47:07.081Z,1.13
2023-02-06T06:48:09.477Z,1.19
2023-02-06T06:49:11.813Z,1.12
2023-02-06T06:50:14.141Z,1.07
2023-02-06T06:51:16.550Z,1.09
2023-02-06T06:52:25.010Z,1.15
2023-02-06T06:53:28.359Z,1.25
2023-02-06T06:54:30.595Z,1.27
2023-02-06T06:55:33.191Z,1.40
2023-02-06T06:56:35.340Z,1.47
2023-02-06T06:57:37.504Z,1.45
2023-02-06T06:58:40.080Z,1.39
2023-02-06T06:59:42.326Z,1.52
2023-02-06T07:00:44.821Z,1.56
2023-02-06T07:01:48.873Z,1.60
2023-02-06T07:02:51.172Z,1.63
2023-02-06T07:03:53.595Z,1.53
2023-02-06T07:04:56.068Z,1.53
2023-02-06T07:05:58.333Z,1.53
2023-02-06T07:07:00.655Z,1.58
2023-02-06T07:08:02.930Z,1.53
2023-02-06T07:09:05.153Z,1.60
2023-02-06T07:10:08.214Z,1.60
2023-02-06T07:11:14.684Z,1.64
2023-02-06T07:12:17.009Z,1.47
2023-02-06T07:13:19.198Z,1.42
2023-02-06T07:14:21.372Z,1.57
2023-02-06T07:15:23.829Z,1.48
2023-02-06T07:16:26.115Z,1.60
2023-02-06T07:17:28.314Z,1.65
2023-02-06T07:18:30.551Z,1.57
2023-02-06T07:19:32.782Z,1.42
2023-02-06T07:20:37.912Z,1.50
2023-02-06T07:21:40.127Z,1.33
2023-02-06T07:22:42.352Z,1.41
2023-02-06T07:23:44.564Z,1.47
2023-02-06T07:24:46.707Z,1.40
2023-02-06T07:25:49.547Z,1.45
2023-02-06T07:26:51.808Z,1.43
2023-02-06T07:27:54.131Z,1.34
2023-02-06T07:28:56.485Z,1.30
2023-02-06T07:29:59.696Z,1.34
2023-02-06T07:31:03.111Z,1.35
2023-02-06T07:32:06.431Z,1.33
2023-02-06T07:33:08.742Z,1.36
2023-02-06T07:34:11.057Z,1.59
2023-02-06T07:35:15.193Z,1.54
2023-02-06T07:36:18.440Z,1.52
2023-02-06T07:37:20.738Z,1.46
2023-02-06T07:38:23.338Z,1.50
2023-02-06T07:39:26.233Z,1.49
2023-02-06T07:40:43.083Z,1.41
2023-02-06T07:41:49.045Z,1.30
2023-02-06T07:42:54.624Z,1.29
2023-02-06T07:44:02.749Z,1.31
2023-02-06T07:45:05.153Z,1.42
2023-02-06T07:46:07.475Z,1.30
2023-02-06T07:47:10.192Z,1.27
2023-02-06T07:48:12.655Z,1.30
2023-02-06T07:49:15.838Z,1.26
2023-02-06T07:50:18.082Z,1.26
2023-02-06T07:51:20.375Z,1.28
2023-02-06T07:52:22.571Z,1.25
2023-02-06T07:53:24.797Z,1.21
2023-02-06T07:54:27.078Z,1.15
2023-02-06T07:55:29.615Z,1.22
2023-02-06T07:56:31.861Z,1.25
2023-02-06T07:57:34.096Z,1.15
2023-02-06T07:58:36.296Z,1.27
2023-02-06T07:59:38.598Z,1.27
2023-02-06T08:00:41.384Z,1.33
2023-02-06T08:01:43.606Z,1.28
2023-02-06T08:02:45.793Z,1.26
2023-02-06T08:03:55.234Z,1.27
2023-02-06T08:04:57.446Z,1.27
2023-02-06T08:05:59.669Z,1.33
2023-02-06T08:07:03.329Z,1.38
2023-02-06T08:08:06.939Z,1.37
2023-02-06T08:09:18.318Z,1.38
2023-02-06T08:10:23.280Z,1.44
2023-02-06T08:11:27.665Z,1.34
2023-02-06T08:12:30.628Z,1.32
2023-02-06T08:13:32.812Z,1.36
2023-02-06T08:14:35.044Z,1.32
2023-02-06T08:15:37.527Z,1.35
2023-02-06T08:16:40.062Z,1.45
2023-02-06T08:17:42.708Z,1.38
2023-02-06T08:18:45.292Z,1.43
2023-02-06T08:19:48.154Z,1.39
2023-02-06T08:20:50.372Z,1.42
2023-02-06T08:21:52.563Z,1.56
2023-02-06T08:22:54.812Z,1.52
2023-02-06T08:23:58.779Z,1.40
2023-02-06T08:25:01.001Z,1.39
2023-02-06T08:26:05.234Z,1.35
2023-02-06T08:27:07.483Z,1.31
2023-02-06T08:28:10.065Z,1.44
2023-02-06T08:29:14.270Z,1.46
2023-02-06T08:30:16.600Z,1.44
2023-02-06T08:31:26.969Z,1.48
2023-02-06T08:32:34.583Z,1.59
2023-02-06T08:33:37.123Z,1.56
2023-02-06T08:34:39.998Z,1.63
2023-02-06T08:35:42.356Z,1.59
2023-02-06T08:36:44.922Z,1.62
2023-02-06T08:37:47.187Z,1.65
2023-02-06T08:38:50.636Z,1.78
2023-02-06T08:39:53.137Z,1.91
2023-02-06T08:40:55.362Z,1.92
2023-02-06T08:41:57.679Z,1.89
2023-02-06T08:43:00.079Z,1.90
2023-02-06T08:44:03.348Z,1.99
2023-02-06T08:45:05.983Z,2.02
2023-02-06T08:46:08.319Z,2.10
2023-02-06T08:47:10.799Z,2.14
2023-02-06T08:48:13.048Z,2.16
2023-02-06T08:49:17.804Z,2.27
2023-02-06T08:50:20.059Z,2.16
2023-02-06T08:51:22.772Z,2.20
2023-02-06T08:52:25.039Z,2.31
2023-02-06T08:53:27.302Z,2.39
2023-02-06T08:54:29.800Z,2.51
2023-02-06T08:55:32.000Z,2.39
2023-02-06T08:56:35.800Z,2.48
2023-02-06T08:57:38.120Z,2.79
2023-02-06T08:58:40.515Z,2.73
2023-02-06T08:59:42.694Z,2.68
2023-02-06T09:00:44.867Z,2.69
2023-02-06T09:01:49.029Z,2.97
2023-02-06T09:02:54.775Z,3.18
2023-02-06T09:04:06.273Z,2.89
2023-02-06T09:05:08.532Z,2.75
2023-02-06T09:06:10.753Z,2.63
2023-02-06T09:07:12.977Z,2.92
2023-02-06T09:08:16.112Z,3.11
2023-02-06T09:09:19.023Z,3.02
2023-02-06T09:10:30.366Z,2.93
2023-02-06T09:11:33.260Z,2.92
2023-02-06T09:12:35.714Z,2.88
2023-02-06T09:13:38.949Z,2.69
2023-02-06T09:14:41.388Z,2.69
2023-02-06T09:15:50.923Z,2.86
2023-02-06T09:16:53.202Z,2.83
2023-02-06T09:17:55.550Z,2.95
2023-02-06T09:19:01.227Z,3.14
2023-02-06T09:20:03.631Z,3.40
2023-02-06T09:21:14.518Z,3.29
2023-02-06T09:22:16.741Z,3.08
2023-02-06T09:23:19.344Z,3.00
2023-02-06T09:24:21.527Z,2.84
2023-02-06T09:25:23.796Z,2.70
2023-02-06T09:26:40.565Z,2.53
2023-02-06T09:27:47.532Z,2.55
2023-02-06T09:28:57.716Z,2.64
2023-02-06T09:29:59.950Z,2.80
2023-02-06T09:31:02.569Z,3.30
2023-02-06T09:32:04.841Z,3.16
2023-02-06T09:33:07.082Z,3.13
2023-02-06T09:34:11.352Z,3.62
2023-02-06T09:35:13.758Z,3.27
2023-02-06T09:36:18.217Z,3.50
2023-02-06T09:37:21.347Z,3.62
2023-02-06T09:38:23.568Z,3.91
2023-02-06T09:39:26.152Z,4.15
2023-02-06T09:40:29.549Z,3.96
2023-02-06T09:41:51.950Z,3.78
2023-02-06T09:42:54.796Z,3.94
2023-02-06T09:44:06.685Z,4.04
2023-02-06T09:45:15.268Z,4.45
2023-02-06T09:46:21.281Z,4.42
2023-02-06T09:47:32.626Z,4.22
2023-02-06T09:48:38.014Z,4.37
2023-02-06T09:49:46.519Z,4.35
2023-02-06T09:50:55.650Z,4.46
2023-02-06T09:52:12.830Z,3.97
2023-02-06T09:53:31.408Z,3.67
2023-02-06T09:54:52.280Z,3.83
2023-02-06T09:56:11.729Z,3.93
2023-02-06T09:57:22.952Z,3.50
2023-02-06T09:58:43.359Z,3.35
2023-02-06T09:59:56.207Z,3.30
2023-02-06T10:01:14.025Z,3.53
2023-02-06T10:02:35.132Z,3.50
2023-02-06T10:03:46.286Z,3.38
2023-02-06T10:05:22.190Z,3.31
2023-02-06T10:06:33.818Z,3.30
2023-02-06T10:08:11.072Z,3.37
2023-02-06T10:09:18.232Z,3.56
2023-02-06T10:10:56.399Z,3.50
2023-02-06T10:12:05.522Z,3.25
2023-02-06T10:13:51.382Z,3.29
2023-02-06T10:15:12.833Z,3.30
2023-02-06T10:16:41.223Z,3.26
2023-02-06T10:18:00.678Z,3.05
2023-02-06T10:19:44.131Z,3.31
2023-02-06T10:21:00.501Z,3.40
2023-02-06T10:22:07.091Z,3.31
2023-02-06T10:23:35.397Z,3.35
2023-02-06T10:25:12.838Z,3.30
2023-02-06T10:26:18.103Z,3.19
2023-02-06T10:27:20.764Z,3.19
2023-02-06T10:28:24.128Z,3.09
2023-02-06T10:29:32.803Z,3.14
2023-02-06T10:30:54.242Z,3.11
2023-02-06T10:32:32.367Z,3.28
2023-02-06T10:33:52.448Z,3.34
2023-02-06T10:35:13.809Z,3.68
2023-02-06T10:36:46.135Z,3.53
2023-02-06T10:38:08.256Z,4.07
2023-02-06T10:39:37.605Z,4.06
2023-02-06T10:41:12.736Z,3.58
2023-02-06T10:42:32.942Z,3.44
2023-02-06T10:43:49.464Z,3.43
2023-02-06T10:45:20.265Z,3.78
2023-02-06T10:46:58.167Z,3.68
2023-02-06T10:48:11.337Z,3.59
2023-02-06T10:49:36.634Z,3.88
2023-02-06T10:50:56.247Z,3.83
2023-02-06T10:52:02.850Z,3.90
2023-02-06T10:53:13.287Z,4.26
2023-02-06T10:54:21.166Z,4.43
2023-02-06T10:55:28.142Z,4.60
2023-02-06T10:56:44.333Z,4.68
2023-02-06T10:57:50.719Z,4.63
2023-02-06T10:58:55.889Z,4.76
2023-02-06T11:00:01.682Z,4.70
2023-02-06T11:01:23.726Z,4.66
2023-02-06T11:02:38.883Z,4.78
2023-02-06T11:03:46.741Z,4.78
2023-02-06T11:05:09.004Z,4.21
2023-02-06T11:06:15.736Z,3.88
2023-02-06T11:07:30.891Z,3.91
2023-02-06T11:08:41.465Z,4.04
2023-02-06T11:09:44.768Z,4.30
2023-02-06T11:10:47.590Z,4.43
2023-02-06T11:11:51.303Z,4.57
2023-02-06T11:13:24.997Z,4.52
2023-02-06T11:14:36.037Z,4.18
2023-02-06T11:15:53.942Z,3.86
2023-02-06T11:17:00.135Z,3.73
2023-02-06T11:18:05.267Z,3.96
2023-02-06T11:19:24.449Z,3.88
2023-02-06T11:20:31.868Z,3.93
2023-02-06T11:21:51.504Z,3.76
2023-02-06T11:22:53.986Z,3.81
2023-02-06T11:24:13.319Z,4.01
2023-02-06T11:25:22.846Z,3.83
2023-02-06T11:26:25.072Z,3.87
2023-02-06T11:27:28.054Z,4.15
2023-02-06T11:28:31.251Z,3.88
2023-02-06T11:29:46.417Z,4.00
2023-02-06T11:30:58.957Z,4.10
2023-02-06T11:32:24.433Z,3.84
2023-02-06T11:33:26.674Z,3.58
2023-02-06T11:34:31.356Z,3.39
2023-02-06T11:35:39.208Z,3.54
2023-02-06T11:36:42.602Z,3.48
2023-02-06T11:37:44.888Z,3.52
2023-02-06T11:39:03.296Z,3.37
2023-02-06T11:40:17.418Z,3.60
2023-02-06T11:41:19.871Z,3.36
2023-02-06T11:42:24.855Z,3.29
2023-02-06T11:43:48.606Z,3.38
2023-02-06T11:44:52.473Z,3.26
2023-02-06T11:46:09.555Z,3.20
2023-02-06T11:47:33.540Z,3.18
2023-02-06T11:48:47.587Z,3.31
2023-02-06T11:49:49.948Z,3.30
2023-02-06T11:50:54.911Z,3.45
2023-02-06T11:52:00.039Z,3.43
2023-02-06T11:53:18.593Z,3.42
2023-02-06T11:54:32.224Z,3.17
2023-02-06T11:55:36.275Z,3.04
2023-02-06T11:56:38.811Z,3.08
2023-02-06T11:57:41.025Z,3.04
2023-02-06T11:58:44.260Z,3.22
2023-02-06T11:59:52.688Z,3.33
2023-02-06T12:01:07.214Z,3.60
2023-02-06T12:02:31.410Z,3.78
2023-02-06T12:03:39.570Z,3.57
2023-02-06T12:04:41.974Z,3.62
2023-02-06T12:05:44.372Z,3.44
2023-02-06T12:06:46.637Z,3.52
2023-02-06T12:07:55.179Z,3.67
2023-02-06T12:09:00.432Z,3.84
2023-02-06T12:10:06.470Z,3.77
2023-02-06T12:11:16.230Z,3.69
2023-02-06T12:12:22.573Z,3.49
2023-02-06T12:13:30.801Z,3.48
2023-02-06T12:14:42.155Z,3.72
2023-02-06T12:15:51.348Z,3.91
2023-02-06T12:16:54.161Z,4.06
2023-02-06T12:18:04.722Z,4.15
2023-02-06T12:19:23.843Z,4.30
2023-02-06T12:20:32.576Z,4.29
2023-02-06T12:21:42.009Z,4.32
2023-02-06T12:22:51.782Z,4.40
2023-02-06T12:24:01.243Z,4.40
2023-02-06T12:25:04.616Z,4.51
2023-02-06T12:26:11.674Z,4.45
2023-02-06T12:27:19.889Z,4.59
2023-02-06T12:28:38.789Z,4.59
2023-02-06T12:30:31.586Z,4.34
2023-02-06T12:31:57.833Z,4.11
2023-02-06T12:33:25.565Z,3.87
2023-02-06T12:34:47.164Z,3.38
2023-02-06T12:35:55.883Z,3.41
2023-02-06T12:37:13.877Z,3.65
2023-02-06T12:38:37.600Z,4.08
2023-02-06T12:39:42.540Z,4.28
2023-02-06T12:41:05.730Z,4.06
2023-02-06T12:42:17.104Z,3.89
2023-02-06T12:43:19.988Z,4.19
2023-02-06T12:44:59.403Z,4.52
2023-02-06T12:46:08.781Z,4.51
2023-02-06T12:47:29.189Z,4.76
2023-02-06T12:48:35.273Z,4.80
2023-02-06T12:49:57.358Z,4.99
2023-02-06T12:51:12.700Z,5.03
2023-02-06T12:52:51.580Z,5.04
2023-02-06T12:53:59.820Z,5.23
2023-02-06T12:55:08.805Z,5.35
2023-02-06T12:56:21.944Z,5.39
2023-02-06T12:57:29.080Z,5.35
2023-02-06T12:58:52.883Z,5.15
2023-02-06T13:00:22.207Z,4.86
2023-02-06T13:01:46.105Z,5.01
2023-02-06T13:03:14.785Z,5.09
2023-02-06T13:04:23.487Z,4.94
2023-02-06T13:05:50.595Z,5.04
2023-02-06T13:07:00.437Z,5.07
2023-02-06T13:08:14.761Z,5.10
2023-02-06T13:09:28.810Z,5.10
2023-02-06T13:10:31.798Z,4.98
2023-02-06T13:11:40.895Z,4.90
2023-02-06T13:12:43.511Z,4.87
2023-02-06T13:13:45.730Z,4.70
2023-02-06T13:14:52.331Z,4.58
2023-02-06T13:15:56.673Z,4.69
2023-02-06T13:17:12.416Z,4.74
2023-02-06T13:18:50.580Z,4.78
2023-02-06T13:20:04.701Z,4.88
2023-02-06T13:21:24.072Z,5.12
2023-02-06T13:22:39.552Z,5.41
2023-02-06T13:23:51.987Z,5.41
2023-02-06T13:24:57.307Z,5.45
2023-02-06T13:25:59.584Z,5.18
2023-02-06T13:27:10.406Z,5.06
2023-02-06T13:28:21.743Z,4.68
2023-02-06T13:29:28.768Z,4.95
2023-02-06T13:30:30.957Z,5.13
2023-02-06T13:31:34.412Z,5.21
2023-02-06T13:32:42.478Z,5.23
2023-02-06T13:33:55.367Z,5.23
2023-02-06T13:35:03.208Z,5.28
2023-02-06T13:36:09.963Z,5.30
2023-02-06T13:37:32.334Z,5.22
2023-02-06T13:38:34.645Z,5.02
2023-02-06T13:39:36.952Z,5.08
2023-02-06T13:40:39.399Z,5.14
2023-02-06T13:41:44.504Z,5.21
2023-02-06T13:43:02.064Z,4.97
2023-02-06T13:44:14.882Z,4.67
2023-02-06T13:45:28.006Z,4.78
2023-02-06T13:47:03.659Z,4.94
2023-02-06T13:48:33.073Z,5.12
2023-02-06T13:50:19.652Z,4.77
2023-02-06T13:51:21.828Z,4.43
2023-02-06T13:52:32.513Z,4.63
2023-02-06T13:53:47.978Z,4.74
2023-02-06T13:55:00.751Z,4.80
2023-02-06T13:56:24.009Z,4.95
2023-02-06T13:57:39.477Z,4.73
2023-02-06T13:58:51.572Z,4.57
2023-02-06T13:59:59.722Z,4.28
2023-02-06T14:01:04.546Z,4.31
2023-02-06T14:02:22.718Z,4.21
2023-02-06T14:03:28.595Z,4.17
2023-02-06T14:04:33.256Z,4.22
2023-02-06T14:05:54.704Z,4.44
2023-02-06T14:07:26.002Z,4.56
2023-02-06T14:08:56.238Z,4.63
2023-02-06T14:10:38.973Z,4.85
2023-02-06T14:12:12.589Z,4.87
2023-02-06T14:13:15.030Z,4.85
2023-02-06T14:14:44.511Z,4.94
2023-02-06T14:16:05.443Z,4.88
2023-02-06T14:17:21.247Z,4.84
2023-02-06T14:18:35.227Z,4.82
2023-02-06T14:20:02.001Z,4.58
2023-02-06T14:21:38.620Z,4.59
2023-02-06T14:23:02.970Z,4.67
2023-02-06T14:24:18.553Z,4.66
2023-02-06T14:25:42.403Z,4.36
2023-02-06T14:27:01.342Z,4.31
2023-02-06T14:28:24.300Z,4.38
2023-02-06T14:29:38.452Z,4.50
2023-02-06T14:31:07.179Z,4.63
2023-02-06T14:32:50.839Z,4.74
2023-02-06T14:34:11.596Z,4.83
2023-02-06T14:35:25.890Z,4.80
2023-02-06T14:36:52.739Z,4.83
2023-02-06T14:38:22.176Z,4.68
2023-02-06T14:39:40.757Z,4.47
2023-02-06T14:40:44.944Z,3.94
2023-02-06T14:41:47.241Z,3.82
2023-02-06T14:42:51.762Z,4.15
2023-02-06T14:43:54.068Z,4.40
2023-02-06T14:45:01.416Z,4.55
2023-02-06T14:46:08.667Z,4.63
2023-02-06T14:47:20.406Z,4.78
2023-02-06T14:48:26.573Z,4.76
2023-02-06T14:49:33.738Z,4.80
2023-02-06T14:50:40.422Z,4.37
2023-02-06T14:51:42.609Z,4.10
2023-02-06T14:52:47.702Z,4.06
2023-02-06T14:53:57.090Z,3.82
2023-02-06T14:54:59.348Z,3.94
2023-02-06T14:56:23.889Z,4.17
2023-02-06T14:57:31.451Z,4.39
2023-02-06T14:58:34.026Z,4.53
2023-02-06T14:59:36.342Z,4.57
2023-02-06T15:00:38.600Z,4.29
2023-02-06T15:01:42.381Z,4.15
2023-02-06T15:02:44.811Z,4.00
2023-02-06T15:03:49.392Z,4.05
2023-02-06T15:04:51.742Z,4.13